Time;durP1;ratioP1;P1;durP2;ratioP2;P2;SDS_P1;SDS_P2;PMS_P1;PMS_P2;Temp;Humidity;BMP_temperature;BMP_pressure;BME280_temperature;BME280_humidity;BME280_pressure;Samples;Min_cycle;Max_cycle;Signal;HPM_P1;HPM_P2
2021/07/07 00:00:55;;;;;;;0.00;0.00;;;15.70;99.90;;;;;;4970659;28;20213;-72
2021/07/07 00:03:23;;;;;;;0.00;0.00;;;15.70;99.90;;;;;;4970626;28;20198;-73
2021/07/07 00:05:50;;;;;;;0.00;0.00;;;15.70;99.90;;;;;;4956315;28;20640;-71
2021/07/07 00:08:16;;;;;;;0.00;0.00;;;15.70;99.90;;;;;;4949453;29;20207;-74
2021/07/07 00:10:44;;;;;;;0.00;0.00;;;15.70;99.90;;;;;;4950950;29;20925;-77
2021/07/07 00:13:13;;;;;;;0.00;0.00;;;15.70;99.90;;;;;;4950835;29;20254;-74
2021/07/07 00:15:40;;;;;;;0.00;0.00;;;15.80;99.90;;;;;;4954546;28;20214;-75
2021/07/07 00:18:09;;;;;;;0.00;0.00;;;15.80;99.90;;;;;;4960514;28;20210;-73
2021/07/07 00:20:39;;;;;;;0.00;0.00;;;15.80;99.90;;;;;;4970108;28;20236;-74
2021/07/07 00:23:07;;;;;;;0.00;0.00;;;15.80;99.90;;;;;;4967760;28;20213;-74
2021/07/07 00:25:34;;;;;;;0.00;0.00;;;15.80;99.90;;;;;;4953660;28;20203;-76
2021/07/07 00:28:01;;;;;;;0.00;0.00;;;15.80;99.90;;;;;;4949779;28;20207;-76
2021/07/07 00:30:30;;;;;;;1.33;1.00;;;15.80;99.90;;;;;;4948687;29;20842;-77
2021/07/07 00:32:57;;;;;;;0.00;0.00;;;15.80;99.90;;;;;;4950681;29;20199;-76
2021/07/07 00:35:25;;;;;;;0.10;0.10;;;15.80;99.90;;;;;;4950998;29;20262;-76
2021/07/07 00:37:52;;;;;;;0.00;0.00;;;15.80;99.90;;;;;;4950164;29;20202;-75
2021/07/07 00:40:19;;;;;;;0.00;0.00;;;15.80;99.90;;;;;;4950659;29;20206;-76
2021/07/07 00:42:46;;;;;;;0.00;0.00;;;15.80;99.90;;;;;;4952475;28;20206;-78
2021/07/07 00:45:14;;;;;;;0.10;0.10;;;15.80;99.90;;;;;;4949134;29;20250;-76
2021/07/07 00:47:43;;;;;;;0.00;0.00;;;15.80;99.90;;;;;;4952934;28;20259;-77
2021/07/07 00:50:11;;;;;;;0.00;0.00;;;15.80;99.90;;;;;;4954354;29;20222;-74
2021/07/07 00:52:38;;;;;;;0.00;0.00;;;15.80;99.90;;;;;;4953812;29;20290;-76
2021/07/07 00:55:07;;;;;;;0.00;0.00;;;15.80;99.90;;;;;;4954706;29;20246;-69
2021/07/07 00:57:35;;;;;;;0.00;0.00;;;15.80;99.90;;;;;;4954437;28;20548;-72
2021/07/07 01:00:05;;;;;;;0.00;0.00;;;15.80;99.90;;;;;;4954319;29;20755;-76
2021/07/07 01:02:36;;;;;;;0.00;0.00;;;15.90;99.90;;;;;;4965281;28;20253;-76
2021/07/07 01:05:06;;;;;;;0.00;0.00;;;15.90;99.90;;;;;;4973455;28;20272;-75
2021/07/07 01:07:33;;;;;;;0.00;0.00;;;15.90;99.90;;;;;;4964810;28;20203;-74
2021/07/07 01:10:00;;;;;;;0.00;0.00;;;15.90;99.90;;;;;;4953408;29;20219;-76
2021/07/07 01:12:27;;;;;;;0.00;0.00;;;15.80;99.90;;;;;;4954331;29;20250;-75
2021/07/07 01:14:55;;;;;;;0.00;0.00;;;15.90;99.90;;;;;;4952841;28;20253;-72
2021/07/07 01:17:23;;;;;;;0.00;0.00;;;15.90;99.90;;;;;;4954379;29;20221;-75
2021/07/07 01:19:51;;;;;;;0.00;0.00;;;15.90;99.90;;;;;;4954303;29;20207;-78
2021/07/07 01:22:20;;;;;;;0.00;0.00;;;15.90;99.90;;;;;;4953903;29;20293;-72
2021/07/07 01:24:47;;;;;;;0.00;0.00;;;15.90;99.90;;;;;;4954235;28;20203;-75
2021/07/07 01:27:14;;;;;;;0.00;0.00;;;15.80;99.90;;;;;;4953877;28;20203;-76
2021/07/07 01:29:41;;;;;;;0.00;0.00;;;15.80;99.90;;;;;;4951458;28;20230;-73
2021/07/07 01:32:09;;;;;;;0.00;0.00;;;15.80;99.90;;;;;;4934537;29;20212;-74
2021/07/07 01:34:36;;;;;;;0.00;0.00;;;15.80;99.90;;;;;;4948343;29;20687;-75
2021/07/07 01:37:03;;;;;;;0.00;0.00;;;15.80;99.90;;;;;;4952193;29;20347;-74
2021/07/07 01:39:32;;;;;;;0.00;0.00;;;15.80;99.90;;;;;;4953254;29;20278;-75
2021/07/07 01:41:59;;;;;;;0.00;0.00;;;15.80;99.90;;;;;;4953838;29;20199;-72
2021/07/07 01:44:26;;;;;;;0.00;0.00;;;15.80;99.90;;;;;;4953478;29;20258;-75
2021/07/07 01:46:52;;;;;;;0.00;0.00;;;15.80;99.90;;;;;;4959565;28;20257;-72
2021/07/07 01:49:20;;;;;;;0.00;0.00;;;15.80;99.90;;;;;;4962341;28;20211;-76
2021/07/07 01:51:47;;;;;;;0.00;0.00;;;15.70;99.90;;;;;;4951955;29;20763;-73
2021/07/07 01:54:14;;;;;;;0.00;0.00;;;15.70;99.90;;;;;;4953384;29;20257;-70
2021/07/07 01:56:42;;;;;;;0.00;0.00;;;15.70;99.90;;;;;;4953557;29;20199;-78
2021/07/07 01:59:09;;;;;;;0.00;0.00;;;15.70;99.90;;;;;;4962544;28;20210;-74
2021/07/07 02:01:36;;;;;;;0.00;0.00;;;15.70;99.90;;;;;;4972789;28;20206;-76
2021/07/07 02:04:03;;;;;;;0.00;0.00;;;15.70;99.90;;;;;;4960755;28;20258;-74
2021/07/07 02:06:30;;;;;;;0.00;0.00;;;15.60;99.90;;;;;;4952762;29;20611;-75
2021/07/07 02:08:58;;;;;;;0.00;0.00;;;15.60;99.90;;;;;;4953076;29;20199;-79
2021/07/07 02:11:25;;;;;;;0.00;0.00;;;15.60;99.90;;;;;;4953028;29;20227;-74
2021/07/07 02:13:53;;;;;;;0.00;0.00;;;15.50;99.90;;;;;;4952770;28;20199;-72
2021/07/07 02:16:20;;;;;;;0.10;0.10;;;15.50;99.90;;;;;;4972631;28;20198;-75
2021/07/07 02:18:47;;;;;;;0.00;0.00;;;15.50;99.90;;;;;;4967712;28;20268;-73
2021/07/07 02:21:14;;;;;;;0.33;0.33;;;15.50;99.90;;;;;;4953143;29;20254;-76
2021/07/07 02:23:41;;;;;;;0.00;0.00;;;15.50;99.90;;;;;;4953117;29;20613;-73
2021/07/07 02:26:08;;;;;;;0.00;0.00;;;15.40;99.90;;;;;;4952872;29;20719;-74
2021/07/07 02:28:35;;;;;;;0.00;0.00;;;15.40;99.90;;;;;;4965825;28;20601;-73
2021/07/07 02:31:04;;;;;;;0.00;0.00;;;15.40;99.90;;;;;;4972441;28;20226;-75
2021/07/07 02:33:31;;;;;;;0.00;0.00;;;15.50;99.90;;;;;;4962179;28;20211;-73
2021/07/07 02:35:58;;;;;;;0.00;0.00;;;15.50;99.90;;;;;;4952605;29;20656;-74
2021/07/07 02:38:26;;;;;;;0.20;0.20;;;15.40;99.90;;;;;;4960169;28;20203;-77
2021/07/07 02:40:55;;;;;;;0.00;0.00;;;15.40;99.90;;;;;;4972256;28;20202;-75
2021/07/07 02:43:23;;;;;;;0.00;0.00;;;15.40;99.90;;;;;;4972187;28;20203;-76
2021/07/07 02:45:50;;;;;;;0.00;0.00;;;15.40;99.90;;;;;;4968291;28;20211;-75
2021/07/07 02:48:19;;;;;;;0.00;0.00;;;15.40;99.90;;;;;;4964141;28;20211;-75
2021/07/07 02:50:47;;;;;;;0.00;0.00;;;15.40;99.90;;;;;;4950568;28;20325;-74
2021/07/07 02:53:17;;;;;;;0.00;0.00;;;15.50;99.90;;;;;;4952820;29;20199;-72
2021/07/07 02:55:45;;;;;;;0.00;0.00;;;15.50;99.90;;;;;;4951886;29;20250;-77
2021/07/07 02:58:12;;;;;;;0.00;0.00;;;15.60;99.90;;;;;;4951399;29;20714;-73
2021/07/07 03:00:41;;;;;;;0.00;0.00;;;15.60;99.90;;;;;;4952201;29;20262;-76
2021/07/07 03:03:11;;;;;;;0.00;0.00;;;15.60;99.90;;;;;;4950758;29;20207;-73
2021/07/07 03:05:40;;;;;;;0.00;0.00;;;15.70;99.90;;;;;;4948847;28;20262;-78
2021/07/07 03:08:08;;;;;;;0.00;0.00;;;15.70;99.90;;;;;;4967141;28;20206;-77
2021/07/07 03:10:35;;;;;;;0.03;0.03;;;15.70;99.90;;;;;;4968804;28;20245;-74
2021/07/07 03:13:02;;;;;;;0.00;0.00;;;15.70;99.90;;;;;;4963570;28;20203;-73
2021/07/07 03:15:29;;;;;;;0.00;0.00;;;15.80;99.90;;;;;;4952416;29;20261;-77
2021/07/07 03:17:56;;;;;;;0.00;0.00;;;15.80;99.90;;;;;;4951888;29;20258;-73
2021/07/07 03:20:23;;;;;;;0.00;0.00;;;15.80;99.90;;;;;;4951021;29;20207;-76
2021/07/07 03:22:52;;;;;;;0.00;0.00;;;15.80;99.90;;;;;;4951272;29;20211;-75
2021/07/07 03:25:18;;;;;;;0.00;0.00;;;15.80;99.90;;;;;;4971316;28;20213;-75
2021/07/07 03:27:46;;;;;;;0.00;0.00;;;15.80;99.90;;;;;;4971365;28;20253;-75
2021/07/07 03:30:13;;;;;;;0.00;0.00;;;15.90;99.90;;;;;;4971378;28;20218;-77
2021/07/07 03:32:40;;;;;;;0.00;0.00;;;15.90;99.90;;;;;;4967970;28;20205;-77
2021/07/07 03:35:08;;;;;;;0.00;0.00;;;15.90;99.90;;;;;;4951656;29;20203;-77
2021/07/07 03:37:36;;;;;;;0.00;0.00;;;15.90;99.90;;;;;;4954917;28;20198;-76
2021/07/07 03:40:06;;;;;;;0.03;0.03;;;15.90;99.90;;;;;;4968883;28;20782;-75
2021/07/07 03:42:33;;;;;;;0.00;0.00;;;15.90;99.90;;;;;;4970978;28;20202;-76
2021/07/07 03:45:00;;;;;;;0.00;0.00;;;16.00;99.90;;;;;;4971257;28;20206;-71
2021/07/07 03:47:27;;;;;;;0.00;0.00;;;15.90;99.90;;;;;;4931755;29;20262;-75
2021/07/07 03:49:54;;;;;;;0.00;0.00;;;15.90;99.90;;;;;;4947611;29;20202;-74
2021/07/07 03:52:21;;;;;;;0.00;0.00;;;16.00;99.90;;;;;;4950396;29;20677;-77
2021/07/07 03:54:48;;;;;;;0.30;0.23;;;16.00;99.90;;;;;;4956380;28;20652;-76
2021/07/07 03:57:16;;;;;;;0.00;0.00;;;16.00;99.90;;;;;;4951673;29;20207;-71
2021/07/07 03:59:45;;;;;;;0.10;0.10;;;16.00;99.90;;;;;;4951741;29;20199;-76
2021/07/07 04:02:12;;;;;;;0.00;0.00;;;16.00;99.90;;;;;;4950735;29;20207;-75
2021/07/07 04:04:39;;;;;;;0.00;0.00;;;16.00;99.90;;;;;;4950407;29;20265;-71
2021/07/07 04:07:06;;;;;;;0.00;0.00;;;16.00;99.90;;;;;;4954459;28;20199;-76
2021/07/07 04:09:33;;;;;;;0.00;0.00;;;16.00;99.90;;;;;;4956812;28;20580;-71
2021/07/07 04:12:01;;;;;;;0.00;0.00;;;16.00;99.90;;;;;;4970704;28;20234;-76
2021/07/07 04:14:30;;;;;;;0.00;0.00;;;16.00;99.90;;;;;;4932456;29;20704;-68
2021/07/07 04:16:59;;;;;;;0.00;0.00;;;16.10;99.90;;;;;;4944046;29;20207;-78
2021/07/07 04:19:27;;;;;;;0.00;0.00;;;16.00;99.90;;;;;;4951169;29;20245;-70
2021/07/07 04:21:55;;;;;;;0.27;0.27;;;16.00;99.90;;;;;;4950421;28;20719;-76
2021/07/07 04:24:22;;;;;;;0.00;0.00;;;16.10;99.90;;;;;;4961769;28;20210;-77
2021/07/07 04:26:50;;;;;;;0.20;0.20;;;16.10;99.90;;;;;;4970775;28;20198;-77
2021/07/07 04:29:17;;;;;;;0.00;0.00;;;16.20;99.90;;;;;;4970655;28;20206;-76
2021/07/07 04:31:46;;;;;;;0.00;0.00;;;16.20;99.90;;;;;;4970715;28;20305;-74
2021/07/07 04:34:13;;;;;;;0.00;0.00;;;16.20;99.90;;;;;;4955631;28;20211;-76
2021/07/07 04:36:40;;;;;;;0.00;0.00;;;16.20;99.90;;;;;;4951233;29;20262;-74
2021/07/07 04:39:09;;;;;;;0.00;0.00;;;16.30;99.90;;;;;;4962235;28;20257;-77
2021/07/07 04:41:36;;;;;;;0.00;0.00;;;16.20;99.90;;;;;;4953129;28;20206;-70
2021/07/07 04:44:03;;;;;;;0.00;0.00;;;16.30;99.90;;;;;;4951382;29;20203;-75
2021/07/07 04:46:30;;;;;;;1.97;0.20;;;16.30;99.90;;;;;;4950011;29;20249;-76
2021/07/07 04:48:59;;;;;;;0.00;0.00;;;16.30;99.90;;;;;;4951044;29;20614;-76
2021/07/07 04:51:26;;;;;;;0.00;0.00;;;16.40;99.90;;;;;;4950039;29;20289;-76
2021/07/07 04:53:53;;;;;;;0.00;0.00;;;16.40;99.90;;;;;;4951161;29;20336;-74
2021/07/07 04:56:20;;;;;;;0.43;0.43;;;16.40;99.90;;;;;;4951132;29;20211;-75
2021/07/07 04:58:47;;;;;;;0.00;0.00;;;16.40;99.90;;;;;;4951202;29;20199;-74
2021/07/07 05:01:14;;;;;;;0.00;0.00;;;16.40;99.90;;;;;;4948827;29;20214;-76
2021/07/07 05:03:41;;;;;;;0.00;0.00;;;16.40;99.90;;;;;;4949828;29;20606;-76
2021/07/07 05:06:09;;;;;;;0.00;0.00;;;16.40;99.90;;;;;;4964055;28;20253;-74
2021/07/07 05:08:36;;;;;;;0.00;0.00;;;16.40;99.90;;;;;;4970348;28;20190;-74
2021/07/07 05:11:03;;;;;;;0.00;0.00;;;16.50;99.90;;;;;;4970299;28;20222;-71
2021/07/07 05:13:31;;;;;;;1.53;1.50;;;16.50;99.90;;;;;;4958185;28;20203;-73
2021/07/07 05:15:59;;;;;;;0.30;0.30;;;16.60;99.90;;;;;;4949731;28;20203;-76
2021/07/07 05:18:26;;;;;;;0.00;0.00;;;16.80;99.90;;;;;;4950918;28;20255;-77
2021/07/07 05:20:53;;;;;;;0.00;0.00;;;16.90;99.90;;;;;;4948351;28;20211;-76
2021/07/07 05:23:21;;;;;;;0.00;0.00;;;17.00;99.90;;;;;;4950786;29;20195;-76
2021/07/07 05:25:49;;;;;;;0.00;0.00;;;17.10;99.90;;;;;;4950803;29;20203;-74
2021/07/07 05:28:16;;;;;;;0.00;0.00;;;17.10;99.90;;;;;;4950726;29;20207;-76
2021/07/07 05:30:43;;;;;;;0.00;0.00;;;17.10;99.90;;;;;;4950531;29;20227;-71
2021/07/07 05:33:10;;;;;;;0.00;0.00;;;17.10;99.90;;;;;;4951097;28;20205;-75
2021/07/07 05:35:38;;;;;;;0.20;0.20;;;17.10;99.90;;;;;;4970910;28;20682;-74
2021/07/07 05:38:06;;;;;;;0.00;0.00;;;17.00;99.90;;;;;;4973770;28;20254;-73
2021/07/07 05:40:34;;;;;;;0.00;0.00;;;17.00;99.90;;;;;;4973264;28;20664;-73
2021/07/07 05:43:02;;;;;;;0.00;0.00;;;17.00;99.90;;;;;;4955096;28;20580;-76
2021/07/07 05:45:29;;;;;;;0.00;0.00;;;17.00;99.90;;;;;;4953117;29;20203;-76
2021/07/07 05:47:58;;;;;;;0.00;0.00;;;16.90;99.90;;;;;;4959404;28;20241;-74
2021/07/07 05:50:26;;;;;;;0.13;0.13;;;16.90;99.90;;;;;;4973158;28;20203;-76
2021/07/07 05:52:54;;;;;;;0.00;0.00;;;17.00;99.90;;;;;;4972826;28;20237;-75
2021/07/07 05:55:21;;;;;;;0.00;0.00;;;17.10;99.90;;;;;;4973102;28;20206;-76
2021/07/07 05:57:50;;;;;;;0.00;0.00;;;17.20;99.90;;;;;;4972758;28;20221;-71
2021/07/07 06:00:18;;;;;;;0.13;0.07;;;17.20;99.90;;;;;;4968000;28;20203;-74
2021/07/07 06:02:47;;;;;;;1.20;0.67;;;17.10;99.90;;;;;;4958516;28;20623;-74
2021/07/07 06:05:15;;;;;;;0.33;0.33;;;17.10;99.90;;;;;;4968324;28;20238;-72
2021/07/07 06:07:43;;;;;;;0.00;0.00;;;17.40;99.90;;;;;;4972763;28;20211;-73
2021/07/07 06:10:12;;;;;;;0.00;0.00;;;17.50;99.90;;;;;;4970180;28;20212;-71
2021/07/07 06:12:40;;;;;;;0.10;0.10;;;17.60;99.90;;;;;;4953016;29;20230;-72
2021/07/07 06:15:11;;;;;;;0.00;0.00;;;17.50;99.90;;;;;;4949282;28;20220;-75
2021/07/07 06:17:38;;;;;;;0.00;0.00;;;17.50;99.90;;;;;;4951155;29;20202;-74
2021/07/07 06:20:08;;;;;;;0.00;0.00;;;17.50;99.90;;;;;;4934178;29;20240;-74
2021/07/07 06:22:35;;;;;;;0.00;0.00;;;17.40;99.90;;;;;;4933429;29;20200;-72
2021/07/07 06:25:02;;;;;;;0.10;0.10;;;17.60;99.90;;;;;;4952122;29;20207;-75
2021/07/07 06:27:29;;;;;;;0.00;0.00;;;17.80;99.90;;;;;;4950971;28;20199;-69
2021/07/07 06:29:56;;;;;;;0.00;0.00;;;17.90;99.90;;;;;;4950793;28;20278;-74
2021/07/07 06:32:24;;;;;;;0.10;0.10;;;18.10;99.90;;;;;;4971667;28;20719;-74
2021/07/07 06:34:51;;;;;;;0.87;0.87;;;18.40;99.90;;;;;;4971882;28;20603;-76
2021/07/07 06:37:18;;;;;;;0.20;0.20;;;18.50;99.90;;;;;;4972211;28;20221;-71
2021/07/07 06:39:45;;;;;;;0.70;0.70;;;18.70;99.90;;;;;;4968464;28;20261;-74
2021/07/07 06:42:12;;;;;;;0.20;0.10;;;19.10;99.90;;;;;;4952797;29;20217;-76
2021/07/07 06:44:39;;;;;;;0.10;0.10;;;19.30;99.90;;;;;;4951872;28;20238;-74
2021/07/07 06:47:06;;;;;;;0.10;0.10;;;19.50;99.90;;;;;;4971800;28;20710;-71
2021/07/07 06:49:35;;;;;;;0.20;0.17;;;19.70;99.90;;;;;;4953673;28;20282;-68
2021/07/07 06:52:02;;;;;;;0.77;0.33;;;19.60;99.90;;;;;;4948622;28;20230;-76
2021/07/07 06:54:29;;;;;;;0.10;0.10;;;19.30;99.90;;;;;;4937693;28;20211;-76
2021/07/07 06:56:56;;;;;;;0.00;0.00;;;19.00;99.90;;;;;;4947955;28;20199;-77
2021/07/07 06:59:23;;;;;;;0.00;0.00;;;18.70;99.90;;;;;;4944941;29;20199;-75
2021/07/07 07:01:50;;;;;;;0.00;0.00;;;18.60;99.90;;;;;;4946844;29;20250;-72
2021/07/07 07:04:17;;;;;;;0.00;0.00;;;18.50;99.90;;;;;;4940151;28;20257;-77
2021/07/07 07:06:46;;;;;;;0.20;0.20;;;18.30;99.90;;;;;;4943501;29;20203;-73
2021/07/07 07:09:13;;;;;;;0.00;0.00;;;18.20;99.90;;;;;;4941271;29;20526;-70
2021/07/07 07:11:40;;;;;;;0.00;0.00;;;18.10;99.90;;;;;;4951081;28;20229;-78
2021/07/07 07:14:08;;;;;;;0.00;0.00;;;18.10;99.90;;;;;;4944459;29;20212;-76
2021/07/07 07:16:36;;;;;;;0.43;0.43;;;18.10;99.90;;;;;;4941300;29;20210;-75
2021/07/07 07:19:03;;;;;;;0.20;0.20;;;18.10;99.90;;;;;;4940360;28;20218;-75
2021/07/07 07:21:30;;;;;;;0.00;0.00;;;18.30;99.90;;;;;;4943292;29;20203;-69
2021/07/07 07:23:58;;;;;;;0.00;0.00;;;18.50;99.90;;;;;;4941307;29;20254;-72
2021/07/07 07:26:27;;;;;;;0.00;0.00;;;18.80;99.90;;;;;;4950421;29;20203;-77
2021/07/07 07:28:54;;;;;;;0.10;0.10;;;19.10;99.90;;;;;;4956617;28;20798;-74
2021/07/07 07:31:21;;;;;;;0.00;0.00;;;19.40;99.90;;;;;;4953452;28;20195;-75
2021/07/07 07:33:48;;;;;;;0.00;0.00;;;19.70;99.90;;;;;;4948792;28;20214;-72
2021/07/07 07:36:16;;;;;;;0.00;0.00;;;20.00;99.90;;;;;;4940516;28;20203;-73
2021/07/07 07:38:44;;;;;;;0.00;0.00;;;20.30;99.90;;;;;;4945649;29;20254;-77
2021/07/07 07:41:13;;;;;;;0.00;0.00;;;20.40;99.90;;;;;;4944080;28;20214;-72
2021/07/07 07:43:42;;;;;;;0.00;0.00;;;20.30;99.90;;;;;;4945109;29;20226;-75
2021/07/07 07:46:09;;;;;;;0.00;0.00;;;20.30;99.90;;;;;;4944372;28;20250;-76
2021/07/07 07:48:36;;;;;;;0.00;0.00;;;20.40;99.90;;;;;;4948453;28;20257;-72
2021/07/07 07:51:04;;;;;;;0.00;0.00;;;20.50;99.90;;;;;;4947243;28;20207;-77
2021/07/07 07:53:31;;;;;;;0.00;0.00;;;20.60;99.90;;;;;;4944388;28;20318;-73
2021/07/07 07:55:58;;;;;;;0.00;0.00;;;20.90;99.90;;;;;;4946891;28;20203;-75
2021/07/07 07:58:26;;;;;;;0.10;0.10;;;21.20;99.90;;;;;;4948879;29;20206;-77
2021/07/07 08:00:53;;;;;;;0.00;0.00;;;21.20;99.90;;;;;;4942460;28;21796;-74
2021/07/07 08:03:20;;;;;;;0.10;0.10;;;21.00;99.90;;;;;;4945077;28;20258;-71
2021/07/07 08:05:47;;;;;;;0.35;0.20;;;20.70;99.90;;;;;;4942457;28;20238;-69
2021/07/07 08:08:14;;;;;;;0.25;0.22;;;20.60;99.90;;;;;;4942305;28;20219;-72
2021/07/07 08:10:41;;;;;;;0.00;0.00;;;20.70;99.90;;;;;;4949791;28;20214;-78
2021/07/07 08:13:08;;;;;;;0.00;0.00;;;20.90;99.90;;;;;;4939040;29;20227;-74
2021/07/07 08:15:38;;;;;;;0.00;0.00;;;20.90;99.90;;;;;;4938937;29;20259;-78
2021/07/07 08:18:05;;;;;;;0.00;0.00;;;20.80;99.90;;;;;;4938324;29;20257;-77
2021/07/07 08:20:32;;;;;;;0.00;0.00;;;20.50;99.90;;;;;;4939042;29;20207;-74
2021/07/07 08:22:59;;;;;;;0.00;0.00;;;20.20;99.90;;;;;;4938663;29;20248;-73
2021/07/07 08:25:26;;;;;;;0.00;0.00;;;19.90;99.90;;;;;;4941257;29;20699;-75
2021/07/07 08:27:55;;;;;;;1.13;0.60;;;19.60;99.90;;;;;;4938353;28;20199;-76
2021/07/07 08:30:23;;;;;;;0.00;0.00;;;19.40;99.90;;;;;;4939981;29;20234;-77
2021/07/07 08:32:51;;;;;;;0.00;0.00;;;19.10;99.90;;;;;;4938957;29;20684;-74
2021/07/07 08:35:18;;;;;;;0.17;0.17;;;18.90;99.90;;;;;;4940847;28;20199;-75
2021/07/07 08:37:46;;;;;;;0.10;0.10;;;18.90;99.90;;;;;;4938994;28;20214;-73
2021/07/07 08:40:15;;;;;;;0.00;0.00;;;19.20;99.90;;;;;;4938049;29;20219;-77
2021/07/07 08:42:44;;;;;;;0.00;0.00;;;19.50;99.90;;;;;;4939271;29;20210;-80
2021/07/07 08:45:13;;;;;;;0.20;0.20;;;19.70;99.90;;;;;;4940195;29;20677;-73
2021/07/07 08:47:43;;;;;;;0.00;0.00;;;19.80;99.90;;;;;;4943232;28;20669;-70
2021/07/07 08:50:14;;;;;;;0.00;0.00;;;19.70;99.90;;;;;;4936448;28;20294;-77
2021/07/07 08:52:42;;;;;;;0.00;0.00;;;19.60;99.90;;;;;;4938638;29;20233;-77
2021/07/07 08:55:11;;;;;;;0.00;0.00;;;19.50;99.90;;;;;;4943618;29;20202;-78
2021/07/07 08:57:43;;;;;;;0.00;0.00;;;19.40;99.90;;;;;;4939903;29;20203;-76
2021/07/07 09:00:13;;;;;;;0.10;0.10;;;19.20;99.90;;;;;;4949557;29;20199;-73
2021/07/07 09:02:55;;;;;;;1.23;0.77;;;19.10;99.90;;;;;;4943436;29;20734;-73
2021/07/07 09:05:24;;;;;;;0.37;0.37;;;18.90;99.90;;;;;;4938696;29;20226;-79
2021/07/07 09:07:51;;;;;;;0.00;0.00;;;18.80;99.90;;;;;;4939665;28;20821;-77
2021/07/07 09:10:28;;;;;;;0.00;0.00;;;18.70;99.90;;;;;;4942561;29;20199;-71
2021/07/07 09:12:55;;;;;;;0.50;0.50;;;18.70;99.90;;;;;;4940266;28;20214;-77
2021/07/07 09:15:23;;;;;;;0.13;0.13;;;18.70;99.90;;;;;;4943579;28;20199;-79
2021/07/07 09:17:52;;;;;;;0.10;0.10;;;18.80;99.90;;;;;;4952611;28;20734;-69
2021/07/07 09:20:24;;;;;;;0.30;0.30;;;18.90;99.90;;;;;;4951880;29;20226;-74
2021/07/07 09:22:52;;;;;;;0.53;0.53;;;19.00;99.90;;;;;;4946861;29;20278;-71
2021/07/07 09:25:29;;;;;;;0.00;0.00;;;19.10;99.90;;;;;;4950441;29;20199;-73
2021/07/07 09:27:56;;;;;;;0.00;0.00;;;19.30;99.90;;;;;;4952303;28;20206;-71
2021/07/07 09:30:23;;;;;;;0.00;0.00;;;19.50;99.90;;;;;;4950897;29;20203;-74
2021/07/07 09:32:52;;;;;;;0.10;0.10;;;19.70;99.90;;;;;;4966475;28;20222;-74
2021/07/07 09:35:20;;;;;;;0.00;0.00;;;19.70;99.90;;;;;;4942955;29;20199;-75
2021/07/07 09:37:53;;;;;;;0.00;0.00;;;19.60;99.90;;;;;;4940583;28;20723;-73
2021/07/07 09:40:20;;;;;;;0.10;0.10;;;19.60;99.90;;;;;;4944120;29;20210;-77
2021/07/07 09:42:48;;;;;;;0.43;0.43;;;19.50;99.90;;;;;;4953682;29;20572;-71
2021/07/07 09:45:19;;;;;;;0.00;0.00;;;19.30;99.90;;;;;;4947234;29;20199;-70
2021/07/07 09:47:47;;;;;;;0.00;0.00;;;19.10;99.90;;;;;;4945108;28;20213;-76
2021/07/07 09:50:16;;;;;;;0.00;0.00;;;18.90;99.90;;;;;;4961177;28;20238;-73
2021/07/07 09:52:44;;;;;;;0.20;0.20;;;18.70;99.90;;;;;;4953511;29;20231;-74
2021/07/07 09:55:13;;;;;;;0.00;0.00;;;18.70;99.90;;;;;;4959551;28;20206;-72
2021/07/07 09:57:48;;;;;;;0.00;0.00;;;18.70;99.90;;;;;;4964487;28;20207;-74
2021/07/07 10:00:17;;;;;;;0.30;0.30;;;18.70;99.90;;;;;;4953134;29;20285;-71
2021/07/07 10:02:47;;;;;;;0.00;0.00;;;18.90;99.90;;;;;;4953122;29;20731;-73
2021/07/07 10:05:17;;;;;;;0.10;0.10;;;19.00;99.90;;;;;;4952974;29;20782;-76
2021/07/07 10:07:45;;;;;;;0.10;0.10;;;19.10;99.90;;;;;;4950998;29;20210;-70
2021/07/07 10:10:15;;;;;;;0.00;0.00;;;19.20;99.90;;;;;;4956197;28;20705;-74
2021/07/07 10:12:44;;;;;;;0.10;0.10;;;19.30;99.90;;;;;;4955806;28;20278;-73
2021/07/07 10:15:12;;;;;;;0.00;0.00;;;19.30;99.90;;;;;;4952457;28;20231;-72
2021/07/07 10:17:41;;;;;;;0.00;0.00;;;19.30;99.90;;;;;;4952700;29;20611;-76
2021/07/07 10:20:10;;;;;;;0.00;0.00;;;19.40;99.90;;;;;;4951053;28;20290;-70
2021/07/07 10:22:38;;;;;;;0.03;0.03;;;19.60;99.90;;;;;;4953043;29;20282;-73
2021/07/07 10:25:08;;;;;;;0.00;0.00;;;20.30;99.90;;;;;;4962927;28;20206;-72
2021/07/07 10:27:38;;;;;;;0.00;0.00;;;21.10;99.90;;;;;;4970234;28;20663;-72
2021/07/07 10:30:06;;;;;;;0.03;0.03;;;21.60;99.90;;;;;;4972233;28;20195;-68
2021/07/07 10:32:33;;;;;;;0.00;0.00;;;21.70;99.90;;;;;;4972131;28;20234;-72
2021/07/07 10:35:08;;;;;;;0.00;0.00;;;22.20;99.90;;;;;;4971998;28;20203;-67
2021/07/07 10:37:37;;;;;;;0.00;0.00;;;23.10;99.90;;;;;;4964465;28;20194;-72
2021/07/07 10:40:25;;;;;;;1.55;0.22;;;23.90;99.90;;;;;;4951809;29;20253;-74
2021/07/07 10:42:54;;;;;;;0.47;0.47;;;24.00;99.90;;;;;;4960394;28;20771;-68
2021/07/07 10:45:35;;;;;;;0.00;0.00;;;23.80;99.90;;;;;;4971948;28;20194;-71
2021/07/07 10:48:28;;;;;;;0.00;0.00;;;23.50;99.90;;;;;;4948171;28;20566;-70
2021/07/07 10:50:57;;;;;;;0.10;0.10;;;23.20;99.90;;;;;;4942637;29;20724;-68
2021/07/07 10:53:27;;;;;;;0.00;0.00;;;23.20;99.90;;;;;;4944976;28;20234;-72
2021/07/07 10:55:54;;;;;;;0.00;0.00;;;23.40;99.90;;;;;;4952336;29;20258;-72
2021/07/07 10:58:27;;;;;;;0.00;0.00;;;24.00;99.90;;;;;;4952281;29;20199;-73
2021/07/07 11:00:54;;;;;;;0.22;0.20;;;24.40;99.90;;;;;;4946266;29;20203;-76
2021/07/07 11:03:39;;;;;;;0.00;0.00;;;24.80;99.90;;;;;;4945573;28;20226;-74
2021/07/07 11:06:37;;;;;;;0.05;0.05;;;25.40;99.90;;;;;;4946728;29;20700;-74
2021/07/07 11:09:13;;;;;;;2.83;0.98;;;25.50;99.90;;;;;;4939565;29;20246;-74
2021/07/07 11:11:42;;;;;;;0.20;0.20;;;25.50;99.90;;;;;;4941047;29;20195;-74
2021/07/07 11:14:22;;;;;;;0.00;0.00;;;25.00;99.90;;;;;;4941345;29;20728;-75
2021/07/07 11:16:55;;;;;;;0.00;0.00;;;24.40;99.90;;;;;;4945559;29;20194;-75
2021/07/07 11:19:53;;;;;;;0.10;0.10;;;24.60;99.90;;;;;;4950796;29;20203;-73
2021/07/07 11:22:20;;;;;;;0.00;0.00;;;24.50;99.90;;;;;;4957305;28;20210;-75
2021/07/07 11:24:50;;;;;;;0.10;0.10;;;24.60;99.90;;;;;;4970977;28;20936;-73
2021/07/07 11:27:17;;;;;;;0.38;0.30;;;25.10;99.90;;;;;;4971080;28;20202;-72
2021/07/07 11:29:46;;;;;;;0.00;0.00;;;25.00;99.90;;;;;;4970837;28;20198;-76
2021/07/07 11:32:30;;;;;;;0.00;0.00;;;24.80;99.90;;;;;;4970828;28;20207;-76
2021/07/07 11:34:58;;;;;;;0.00;0.00;;;24.20;99.90;;;;;;4970991;28;20202;-74
2021/07/07 11:37:30;;;;;;;0.00;0.00;;;23.50;99.90;;;;;;4961915;28;20210;-72
2021/07/07 11:40:13;;;;;;;0.00;0.00;;;23.10;99.90;;;;;;4951384;29;20218;-74
2021/07/07 11:42:58;;;;;;;0.10;0.10;;;23.50;99.90;;;;;;4951854;29;20191;-70
2021/07/07 11:45:30;;;;;;;0.13;0.13;;;23.60;99.90;;;;;;4951000;29;20202;-74
2021/07/07 11:48:01;;;;;;;0.17;0.10;;;23.30;99.90;;;;;;4951191;29;20195;-72
2021/07/07 11:50:28;;;;;;;0.03;0.03;;;22.90;99.90;;;;;;4961817;28;20205;-74
2021/07/07 11:53:01;;;;;;;0.00;0.00;;;22.50;99.90;;;;;;4960305;28;20241;-74
2021/07/07 11:55:56;;;;;;;0.00;0.00;;;22.10;99.90;;;;;;4939495;28;21118;-75
2021/07/07 11:58:35;;;;;;;0.00;0.00;;;21.70;99.90;;;;;;4938190;29;20281;-74
2021/07/07 12:01:07;;;;;;;0.00;0.00;;;21.50;99.90;;;;;;4939921;29;20841;-77
2021/07/07 12:03:34;;;;;;;0.00;0.00;;;21.40;99.90;;;;;;4940750;29;20218;-68
2021/07/07 12:06:03;;;;;;;0.15;0.15;;;21.30;99.90;;;;;;4939526;29;20708;-70
2021/07/07 12:08:33;;;;;;;0.00;0.00;;;21.30;99.90;;;;;;4938180;28;20207;-77
2021/07/07 12:11:07;;;;;;;0.00;0.00;;;21.30;99.90;;;;;;4940013;28;20214;-71
2021/07/07 12:13:34;;;;;;;0.00;0.00;;;21.50;99.90;;;;;;4940823;29;20215;-73
2021/07/07 12:16:24;;;;;;;0.00;0.00;;;21.70;99.90;;;;;;4938632;29;20199;-71
2021/07/07 12:18:53;;;;;;;0.00;0.00;;;22.00;99.90;;;;;;4938326;29;20303;-76
2021/07/07 12:21:47;;;;;;;0.22;0.22;;;22.10;99.90;;;;;;4939131;29;20656;-72
2021/07/07 12:24:18;;;;;;;0.00;0.00;;;22.30;99.90;;;;;;4939547;29;20209;-76
2021/07/07 12:26:48;;;;;;;0.00;0.00;;;22.30;99.90;;;;;;4938554;29;20199;-76
2021/07/07 12:29:17;;;;;;;0.00;0.00;;;22.30;99.90;;;;;;4940205;29;20334;-76
2021/07/07 12:31:47;;;;;;;0.00;0.00;;;22.30;99.90;;;;;;4940189;29;20203;-72
2021/07/07 12:34:18;;;;;;;0.00;0.00;;;22.20;99.90;;;;;;4938307;29;20364;-75
2021/07/07 12:36:45;;;;;;;0.00;0.00;;;22.00;99.90;;;;;;4941057;29;20258;-73
2021/07/07 12:39:17;;;;;;;0.00;0.00;;;21.90;99.90;;;;;;4938486;29;20290;-77
2021/07/07 12:41:49;;;;;;;0.00;0.00;;;22.20;99.90;;;;;;4940925;29;20210;-77
2021/07/07 12:44:25;;;;;;;0.00;0.00;;;22.60;99.90;;;;;;4942635;29;20191;-76
2021/07/07 12:46:55;;;;;;;0.00;0.00;;;23.60;99.90;;;;;;4942133;28;20199;-71
2021/07/07 12:49:40;;;;;;;0.00;0.00;;;24.40;99.90;;;;;;4943353;29;22128;-72
2021/07/07 12:52:19;;;;;;;0.00;0.00;;;24.90;99.90;;;;;;4944092;29;20809;-73
2021/07/07 12:54:59;;;;;;;0.00;0.00;;;25.40;99.90;;;;;;4943390;29;20351;-75
2021/07/07 12:57:41;;;;;;;0.00;0.00;;;25.80;99.90;;;;;;4942500;29;20209;-76